Time;durP1;ratioP1;P1;durP2;ratioP2;P2;SDS_P1;SDS_P2;PMS_P1;PMS_P2;Temp;Humidity;BMP_temperature;BMP_pressure;BME280_temperature;BME280_humidity;BME280_pressure;Samples;Min_cycle;Max_cycle;Signal;HPM_P1;HPM_P2
2023/08/31 00:02:26;;;;;;;7.60;4.90;;;;;;;16.54;100.00;99385.61;177189;1264;46218;-84
2023/08/31 00:06:30;;;;;;;5.80;5.10;;;;;;;16.60;100.00;99385.98;177161;1266;46178;-84
2023/08/31 00:10:36;;;;;;;6.30;5.10;;;;;;;16.62;100.00;99390.22;177312;1261;58430;-84
2023/08/31 00:14:39;;;;;;;8.00;5.00;;;;;;;16.68;100.00;99394.66;177689;1261;46212;-84
2023/08/31 00:18:44;;;;;;;4.40;3.70;;;;;;;16.68;100.00;99391.36;177501;1262;46182;-84
2023/08/31 00:22:48;;;;;;;4.30;3.50;;;;;;;16.69;100.00;99384.95;176689;1261;46234;-85
2023/08/31 00:26:51;;;;;;;5.50;4.90;;;;;;;16.66;100.00;99387.20;176921;1260;46001;-84
2023/08/31 00:30:54;;;;;;;7.80;4.00;;;;;;;16.63;100.00;99390.94;177478;1260;59303;-84
2023/08/31 00:34:57;;;;;;;4.70;2.90;;;;;;;16.64;100.00;99384.91;176953;1261;45995;-84
2023/08/31 00:39:11;;;;;;;6.80;4.30;;;;;;;16.62;100.00;99380.59;177121;1262;46074;-84
2023/08/31 00:43:17;;;;;;;5.00;3.80;;;;;;;16.56;100.00;99380.94;177421;1260;46110;-84
2023/08/31 00:47:21;;;;;;;6.00;4.10;;;;;;;16.45;100.00;99381.83;177219;1260;44406;-84
2023/08/31 00:51:25;;;;;;;6.00;4.20;;;;;;;16.35;100.00;99380.04;176911;1265;58012;-83
2023/08/31 00:55:28;;;;;;;6.40;4.80;;;;;;;16.23;100.00;99378.92;177275;1261;46189;-84
2023/08/31 00:59:31;;;;;;;3.40;3.10;;;;;;;16.17;100.00;99375.70;177373;1262;46177;-85
2023/08/31 01:03:54;;;;;;;4.50;4.10;;;;;;;16.13;100.00;99370.92;176814;1261;46097;-83
2023/08/31 01:08:12;;;;;;;5.30;3.90;;;;;;;16.08;100.00;99370.10;177129;1262;46048;-84
2023/08/31 01:12:22;;;;;;;11.90;5.10;;;;;;;16.03;100.00;99370.73;177506;1264;57916;-84
2023/08/31 01:16:26;;;;;;;3.60;3.20;;;;;;;15.98;100.00;99374.87;177293;1261;44223;-84
2023/08/31 01:21:01;;;;;;;5.70;3.50;;;;;;;15.94;100.00;99375.02;177356;1260;46114;-84
2023/08/31 01:25:05;;;;;;;4.40;3.70;;;;;;;15.81;100.00;99372.15;176897;1261;46085;-84
2023/08/31 01:29:09;;;;;;;4.60;3.40;;;;;;;15.75;100.00;99371.56;176932;1260;46014;-84
2023/08/31 01:33:12;;;;;;;4.00;3.60;;;;;;;15.71;100.00;99373.27;176990;1261;58391;-84
2023/08/31 01:37:27;;;;;;;5.90;3.90;;;;;;;15.68;100.00;99366.81;177299;1262;46267;-84
2023/08/31 01:41:35;;;;;;;6.20;3.60;;;;;;;15.61;100.00;99368.57;176875;1261;46066;-85
2023/08/31 01:45:39;;;;;;;14.30;5.00;;;;;;;15.51;100.00;99368.45;177074;1262;46178;-84
2023/08/31 01:49:43;;;;;;;4.40;3.60;;;;;;;15.45;100.00;99369.17;177088;1260;46074;-84
2023/08/31 01:53:46;;;;;;;5.20;4.00;;;;;;;15.38;100.00;99373.15;177466;1262;57526;-84
2023/08/31 01:57:49;;;;;;;6.50;4.00;;;;;;;15.38;100.00;99370.09;177175;1261;46103;-84
2023/08/31 02:01:53;;;;;;;4.70;4.30;;;;;;;15.29;100.00;99364.45;177287;1263;46098;-84
2023/08/31 02:05:56;;;;;;;6.10;3.70;;;;;;;15.11;100.00;99363.42;177327;1262;46103;-84
2023/08/31 02:09:59;;;;;;;5.40;4.70;;;;;;;14.96;100.00;99363.15;177210;1262;46020;-84
2023/08/31 02:14:03;;;;;;;8.90;4.70;;;;;;;14.88;100.00;99367.25;177131;1262;57849;-84
2023/08/31 02:18:07;;;;;;;6.60;4.40;;;;;;;14.85;100.00;99364.86;177324;1262;46044;-84
2023/08/31 02:22:11;;;;;;;7.60;5.70;;;;;;;14.92;100.00;99368.80;176925;1265;46049;-84
2023/08/31 02:26:14;;;;;;;5.80;5.00;;;;;;;14.97;100.00;99372.29;177269;1262;46017;-84
2023/08/31 02:30:17;;;;;;;11.70;5.70;;;;;;;15.02;100.00;99368.17;177256;1262;46201;-84
2023/08/31 02:34:20;;;;;;;5.80;5.20;;;;;;;15.05;100.00;99369.45;177041;1263;57238;-84
2023/08/31 02:38:24;;;;;;;6.70;4.40;;;;;;;15.05;100.00;99377.25;177403;1261;46364;-84
2023/08/31 02:42:27;;;;;;;5.90;4.90;;;;;;;15.04;100.00;99375.29;177404;1262;46020;-83
2023/08/31 02:46:30;;;;;;;6.20;5.60;;;;;;;15.04;100.00;99368.36;177302;1262;46227;-84
2023/08/31 02:50:34;;;;;;;8.30;6.60;;;;;;;15.01;100.00;99367.77;177485;1261;49182;-85
2023/08/31 02:54:38;;;;;;;7.60;5.70;;;;;;;15.02;100.00;99365.33;177056;1261;60136;-84
2023/08/31 02:58:42;;;;;;;13.30;6.70;;;;;;;15.05;100.00;99368.55;177325;1262;46053;-84
2023/08/31 03:02:45;;;;;;;7.60;6.90;;;;;;;15.13;100.00;99374.92;177191;1261;45986;-82
2023/08/31 03:06:48;;;;;;;8.40;6.40;;;;;;;15.21;100.00;99375.08;177871;1261;46114;-84
2023/08/31 03:10:53;;;;;;;6.50;5.30;;;;;;;15.30;100.00;99374.77;177348;1262;46095;-85
2023/08/31 03:14:56;;;;;;;8.60;4.80;;;;;;;15.34;100.00;99373.41;177843;1262;58212;-82
2023/08/31 03:19:00;;;;;;;5.60;5.10;;;;;;;15.39;100.00;99373.94;178056;1261;45014;-81
2023/08/31 03:23:04;;;;;;;7.20;5.40;;;;;;;15.40;100.00;99373.21;179454;1261;44402;-81
2023/08/31 03:27:07;;;;;;;4.90;4.00;;;;;;;15.42;100.00;99366.81;178167;1260;46024;-81
2023/08/31 03:31:10;;;;;;;6.80;6.00;;;;;;;15.40;100.00;99371.15;177659;1265;46148;-81
2023/08/31 03:35:14;;;;;;;5.00;4.60;;;;;;;15.35;100.00;99375.61;177659;1265;59321;-81
2023/08/31 03:39:17;;;;;;;6.00;5.40;;;;;;;15.38;100.00;99376.76;179091;1261;46082;-81
2023/08/31 03:43:20;;;;;;;6.10;4.60;;;;;;;15.41;100.00;99377.41;178068;1260;44594;-81
2023/08/31 03:47:23;;;;;;;6.90;6.20;;;;;;;15.42;100.00;99377.66;178192;1261;44800;-81
2023/08/31 03:51:26;;;;;;;6.40;4.90;;;;;;;15.44;100.00;99383.34;177340;1262;45988;-81
2023/08/31 03:55:29;;;;;;;6.50;5.60;;;;;;;15.44;100.00;99377.78;176949;1261;56976;-81
2023/08/31 03:59:33;;;;;;;7.40;6.60;;;;;;;15.44;100.00;99374.23;177338;1262;46030;-82
2023/08/31 04:03:36;;;;;;;5.20;4.70;;;;;;;15.44;100.00;99373.94;177197;1265;45831;-82
2023/08/31 04:07:39;;;;;;;6.00;5.30;;;;;;;15.43;100.00;99379.54;177793;1262;46091;-81
2023/08/31 04:11:43;;;;;;;7.10;5.70;;;;;;;15.48;100.00;99385.89;178091;1261;45994;-81
2023/08/31 04:15:46;;;;;;;4.70;4.20;;;;;;;15.57;100.00;99385.61;177971;1262;57895;-81
2023/08/31 04:19:50;;;;;;;6.40;4.70;;;;;;;15.55;100.00;99382.92;177380;1262;46099;-82
2023/08/31 04:23:54;;;;;;;6.60;5.40;;;;;;;15.56;100.00;99387.34;177343;1262;46010;-81
2023/08/31 04:27:57;;;;;;;5.10;4.60;;;;;;;15.66;100.00;99391.73;177534;1261;44089;-81
2023/08/31 04:32:00;;;;;;;5.70;5.20;;;;;;;15.71;100.00;99399.86;178341;1262;46022;-81
2023/08/31 04:36:04;;;;;;;7.60;5.70;;;;;;;15.74;100.00;99401.98;177076;1265;58452;-81
2023/08/31 04:40:08;;;;;;;5.40;4.90;;;;;;;15.74;100.00;99403.39;177141;1265;46104;-81
2023/08/31 04:44:12;;;;;;;5.60;5.10;;;;;;;15.84;100.00;99402.34;177846;1260;46121;-81
2023/08/31 04:48:15;;;;;;;8.20;5.60;;;;;;;15.93;100.00;99406.88;178296;1265;46314;-81
2023/08/31 04:52:18;;;;;;;5.00;4.50;;;;;;;15.98;100.00;99413.15;179089;1261;46312;-82
2023/08/31 04:56:21;;;;;;;4.90;4.30;;;;;;;16.02;100.00;99414.48;177143;1262;57941;-82
2023/08/31 05:00:25;;;;;;;5.70;5.20;;;;;;;16.06;100.00;99413.60;177621;1263;46203;-81
2023/08/31 05:04:28;;;;;;;6.00;5.20;;;;;;;16.06;100.00;99415.66;177113;1265;46251;-81
2023/08/31 05:08:32;;;;;;;7.40;5.00;;;;;;;16.10;100.00;99420.88;177510;1261;45981;-81
2023/08/31 05:12:35;;;;;;;6.00;5.40;;;;;;;16.16;100.00;99427.41;177476;1262;46097;-81
2023/08/31 05:16:38;;;;;;;5.60;5.00;;;;;;;16.18;100.00;99428.52;177614;1262;58210;-81
2023/08/31 05:20:46;;;;;;;6.20;5.20;;;;;;;16.24;100.00;99431.20;177114;1261;46154;-81
2023/08/31 05:24:49;;;;;;;6.10;5.50;;;;;;;16.32;100.00;99437.84;178078;1265;46140;-81
2023/08/31 05:28:54;;;;;;;5.10;4.60;;;;;;;16.37;100.00;99438.05;177548;1260;44129;-81
2023/08/31 05:32:57;;;;;;;6.50;5.90;;;;;;;16.48;100.00;99435.39;177339;1262;46001;-81
2023/08/31 05:37:00;;;;;;;7.20;6.50;;;;;;;16.58;100.00;99439.06;177180;1261;59019;-82
2023/08/31 05:41:07;;;;;;;5.60;5.00;;;;;;;16.83;100.00;99439.35;177317;1262;45999;-81
2023/08/31 05:45:11;;;;;;;10.20;6.80;;;;;;;17.57;100.00;99438.42;177555;1262;46000;-81
2023/08/31 05:49:14;;;;;;;9.40;5.60;;;;;;;18.22;100.00;99444.08;177450;1261;46027;-81
2023/08/31 05:53:17;;;;;;;6.80;4.20;;;;;;;18.67;100.00;99453.50;177318;1262;46127;-81
2023/08/31 05:57:22;;;;;;;4.00;3.60;;;;;;;19.15;100.00;99458.23;177021;1261;58273;-81
2023/08/31 06:01:25;;;;;;;4.60;4.10;;;;;;;19.46;100.00;99463.21;177237;1261;45998;-82
2023/08/31 06:05:30;;;;;;;5.70;3.60;;;;;;;19.73;100.00;99466.86;177813;1265;46804;-82
2023/08/31 06:09:33;;;;;;;4.80;3.80;;;;;;;19.99;100.00;99465.54;177545;1261;47322;-82
2023/08/31 06:13:38;;;;;;;6.20;4.30;;;;;;;20.34;99.59;99474.27;177284;1266;46019;-82
2023/08/31 06:17:41;;;;;;;5.00;4.60;;;;;;;20.56;97.66;99483.34;177481;1263;58295;-82
2023/08/31 06:21:44;;;;;;;4.40;3.90;;;;;;;20.74;97.52;99489.08;177495;1260;46065;-82
2023/08/31 06:25:47;;;;;;;5.10;4.10;;;;;;;20.48;92.71;99490.25;177817;1262;48463;-82
2023/08/31 06:29:51;;;;;;;5.80;4.30;;;;;;;20.47;96.22;99498.14;177342;1262;46117;-82
2023/08/31 06:33:53;;;;;;;5.30;4.80;;;;;;;20.42;97.29;99505.50;178246;1265;44736;-82
2023/08/31 06:37:57;;;;;;;6.20;4.40;;;;;;;20.45;96.42;99507.20;178123;1261;57935;-82
2023/08/31 06:42:00;;;;;;;8.60;5.50;;;;;;;20.64;97.05;99507.38;176903;1263;46103;-82
2023/08/31 06:46:03;;;;;;;4.30;3.90;;;;;;;20.98;94.89;99512.34;177532;1262;45958;-82
2023/08/31 06:50:26;;;;;;;4.90;4.40;;;;;;;21.18;91.56;99514.77;177703;1262;45966;-82
2023/08/31 06:54:29;;;;;;;8.20;4.40;;;;;;;21.02;90.89;99520.06;177281;1260;46205;-82
2023/08/31 06:58:32;;;;;;;6.70;5.00;;;;;;;20.93;93.57;99520.55;177199;1261;59608;-82
2023/08/31 07:02:39;;;;;;;6.00;5.40;;;;;;;20.70;92.99;99522.00;177911;1265;46120;-82
2023/08/31 07:06:42;;;;;;;10.30;7.90;;;;;;;20.13;94.96;99532.09;177181;1261;46142;-82
2023/08/31 07:10:47;;;;;;;6.10;5.40;;;;;;;19.31;97.20;99538.66;177517;1262;45749;-82
2023/08/31 07:14:51;;;;;;;6.20;4.40;;;;;;;18.55;100.00;99544.98;177568;1262;46146;-81
2023/08/31 07:18:54;;;;;;;7.10;5.80;;;;;;;18.15;100.00;99550.85;177446;1265;58183;-81
2023/08/31 07:22:57;;;;;;;5.60;4.10;;;;;;;17.88;100.00;99545.58;177158;1265;46363;-81
2023/08/31 07:27:04;;;;;;;5.90;5.30;;;;;;;17.54;100.00;99555.38;177288;1261;46202;-81
2023/08/31 07:31:07;;;;;;;3.80;2.10;;;;;;;17.44;100.00;99565.08;177453;1261;46109;-82
2023/08/31 07:35:11;;;;;;;4.00;2.70;;;;;;;17.17;100.00;99575.54;177242;1266;45965;-81
2023/08/31 07:39:14;;;;;;;2.80;1.70;;;;;;;16.90;100.00;99582.36;177960;1260;59579;-81
2023/08/31 07:43:17;;;;;;;1.70;1.60;;;;;;;16.71;100.00;99582.83;177619;1265;46080;-81
2023/08/31 07:47:20;;;;;;;2.10;1.90;;;;;;;16.69;100.00;99590.50;177698;1265;46073;-81
2023/08/31 07:51:24;;;;;;;3.60;2.30;;;;;;;16.69;100.00;99605.36;177475;1262;46032;-81
2023/08/31 07:55:27;;;;;;;17.40;2.50;;;;;;;16.55;100.00;99622.58;177609;1261;46054;-81
2023/08/31 07:59:30;;;;;;;4.20;1.90;;;;;;;16.36;100.00;99616.54;177328;1265;60139;-81
2023/08/31 08:03:33;;;;;;;2.40;2.10;;;;;;;16.34;100.00;99620.53;177908;1264;46075;-81
2023/08/31 08:07:37;;;;;;;3.10;2.60;;;;;;;16.22;100.00;99623.38;177308;1266;46017;-81
2023/08/31 08:11:40;;;;;;;3.60;2.50;;;;;;;16.42;100.00;99620.58;177926;1265;46026;-81
2023/08/31 08:15:45;;;;;;;2.90;2.40;;;;;;;16.59;100.00;99629.79;177303;1264;46035;-81
2023/08/31 08:19:48;;;;;;;4.10;2.70;;;;;;;16.56;100.00;99643.86;177038;1260;59360;-82
2023/08/31 08:23:52;;;;;;;3.50;2.80;;;;;;;16.48;100.00;99644.35;177287;1264;45985;-81
2023/08/31 08:27:55;;;;;;;2.50;2.30;;;;;;;16.34;100.00;99652.74;177735;1265;46036;-81
2023/08/31 08:31:58;;;;;;;3.80;3.10;;;;;;;16.29;100.00;99652.64;177642;1265;46006;-81
2023/08/31 08:36:01;;;;;;;3.50;2.50;;;;;;;16.21;100.00;99658.04;177428;1260;46113;-81
2023/08/31 08:40:05;;;;;;;2.40;2.10;;;;;;;16.25;100.00;99664.85;177224;1260;59249;-81
2023/08/31 08:44:09;;;;;;;4.30;3.60;;;;;;;16.29;100.00;99664.98;177912;1260;45976;-81
2023/08/31 08:48:14;;;;;;;24.10;4.80;;;;;;;16.36;100.00;99673.42;177391;1260;46146;-81
2023/08/31 08:52:18;;;;;;;4.60;3.80;;;;;;;16.58;100.00;99677.95;178126;1264;46016;-81
2023/08/31 08:56:21;;;;;;;6.70;4.60;;;;;;;16.75;100.00;99680.84;176908;1263;45130;-81
2023/08/31 09:00:25;;;;;;;5.70;5.00;;;;;;;16.84;100.00;99677.91;177630;1263;59003;-81
2023/08/31 09:04:30;;;;;;;4.00;3.70;;;;;;;16.88;100.00;99673.23;177489;1260;44140;-81
2023/08/31 09:08:33;;;;;;;7.30;5.30;;;;;;;16.89;100.00;99685.63;177388;1266;46263;-81
2023/08/31 09:12:39;;;;;;;6.00;5.50;;;;;;;16.90;100.00;99696.47;176940;1265;46227;-81
2023/08/31 09:16:50;;;;;;;6.80;6.10;;;;;;;16.89;100.00;99700.09;176973;1261;46078;-81
2023/08/31 09:20:56;;;;;;;6.30;5.50;;;;;;;16.86;100.00;99706.77;177051;1260;58484;-81
2023/08/31 09:24:59;;;;;;;;;;;;;;;16.94;100.00;99707.03;177031;1261;46193;-81
2023/08/31 09:29:07;;;;;;;4.90;3.60;;;;;;;17.05;100.00;99708.01;177884;1261;45549;-81
2023/08/31 09:33:14;;;;;;;5.40;3.80;;;;;;;17.10;100.00;99712.23;177479;1261;44421;-81
2023/08/31 09:37:17;;;;;;;3.80;3.00;;;;;;;17.12;100.00;99710.19;177176;1265;200704;-81
2023/08/31 09:41:20;;;;;;;5.00;3.90;;;;;;;17.17;100.00;99709.54;177217;1260;57922;-81
2023/08/31 09:45:31;;;;;;;4.60;2.40;;;;;;;17.24;100.00;99711.24;177109;1260;46039;-81
2023/08/31 09:49:48;;;;;;;4.00;2.60;;;;;;;17.35;100.00;99704.55;177852;1261;46122;-81
2023/08/31 09:53:57;;;;;;;6.20;3.40;;;;;;;17.52;100.00;99701.11;178629;1260;44091;-81
2023/08/31 09:58:02;;;;;;;3.60;3.30;;;;;;;17.73;100.00;99708.32;177617;1260;46018;-81
2023/08/31 10:02:18;;;;;;;4.30;2.70;;;;;;;17.93;100.00;99715.18;176168;1267;59250;-79
2023/08/31 10:06:22;;;;;;;3.00;2.60;;;;;;;18.07;100.00;99719.27;176245;1261;46131;-79
2023/08/31 10:10:28;;;;;;;3.50;3.10;;;;;;;18.25;100.00;99722.84;177033;1260;46113;-79
2023/08/31 10:14:32;;;;;;;3.20;2.90;;;;;;;18.43;100.00;99724.89;176781;1265;46074;-79
2023/08/31 10:18:36;;;;;;;4.50;2.60;;;;;;;18.72;100.00;99713.41;176537;1260;44428;-79
2023/08/31 10:22:39;;;;;;;5.10;2.90;;;;;;;19.04;100.00;99712.82;176745;1260;58499;-80
2023/08/31 10:26:42;;;;;;;3.60;3.30;;;;;;;19.24;100.00;99713.88;176058;1260;46380;-79
2023/08/31 10:31:03;;;;;;;3.50;3.10;;;;;;;19.36;100.00;99708.81;176534;1261;46186;-81
2023/08/31 10:35:09;;;;;;;4.90;3.90;;;;;;;19.59;100.00;99711.23;176884;1260;46095;-81
2023/08/31 10:39:15;;;;;;;4.80;3.10;;;;;;;19.81;100.00;99702.83;178014;1261;45320;-81
2023/08/31 10:43:19;;;;;;;5.30;3.30;;;;;;;19.85;98.21;99705.75;177810;1260;57938;-82
2023/08/31 10:47:37;;;;;;;5.10;4.50;;;;;;;19.75;98.05;99711.02;177640;1261;45953;-81
2023/08/31 10:52:19;;;;;;;15.20;4.40;;;;;;;19.40;99.91;99711.95;177143;1260;45981;-81
2023/08/31 10:57:03;;;;;;;2.90;2.40;;;;;;;19.23;100.00;99718.03;176778;1272;46162;-81
2023/08/31 11:01:07;;;;;;;5.10;3.40;;;;;;;19.27;100.00;99713.90;176925;1270;46340;-81
2023/08/31 11:05:12;;;;;;;2.50;2.00;;;;;;;19.26;100.00;99715.34;175885;1270;58771;-81
2023/08/31 11:09:20;;;;;;;2.70;1.70;;;;;;;19.47;95.10;99713.90;176036;1268;46110;-81
2023/08/31 11:13:23;;;;;;;2.80;1.70;;;;;;;19.73;90.09;99713.92;176063;1270;46101;-81
2023/08/31 11:17:27;;;;;;;1.20;1.10;;;;;;;19.85;88.54;99711.70;176729;1270;45906;-81
2023/08/31 11:21:32;;;;;;;3.60;1.70;;;;;;;19.97;91.93;99713.64;176477;1270;46005;-82
2023/08/31 11:25:36;;;;;;;3.90;2.00;;;;;;;19.95;84.78;99716.98;176663;1270;57924;-81
2023/08/31 11:29:45;;;;;;;5.60;2.10;;;;;;;19.85;89.27;99709.65;177514;1260;44370;-82
2023/08/31 11:33:48;;;;;;;2.60;2.30;;;;;;;19.97;92.60;99704.79;177351;1263;46064;-81
2023/08/31 11:37:55;;;;;;;2.30;1.90;;;;;;;20.20;92.59;99700.54;177456;1260;46105;-81
2023/08/31 11:41:59;;;;;;;2.70;2.10;;;;;;;20.41;89.39;99702.05;177331;1260;44705;-81
2023/08/31 11:46:04;;;;;;;9.00;2.10;;;;;;;20.60;89.05;99698.17;177659;1261;58924;-82
2023/08/31 11:50:08;;;;;;;2.90;1.80;;;;;;;20.65;85.86;99692.55;178587;1260;44700;-81
2023/08/31 11:54:11;;;;;;;2.30;2.10;;;;;;;20.69;85.79;99691.53;178008;1260;44160;-81
2023/08/31 11:58:14;;;;;;;3.40;3.10;;;;;;;20.71;82.17;99693.80;177377;1262;46240;-82
2023/08/31 12:02:19;;;;;;;3.80;2.40;;;;;;;20.79;83.89;99687.09;176802;1264;48854;-81
2023/08/31 12:06:22;;;;;;;2.00;1.70;;;;;;;20.95;84.77;99688.30;177202;1261;59716;-80
2023/08/31 12:10:26;;;;;;;3.10;2.20;;;;;;;21.09;86.08;99687.14;176994;1264;46227;-80
2023/08/31 12:14:30;;;;;;;2.50;1.70;;;;;;;21.06;80.16;99689.80;178452;1260;46688;-80
2023/08/31 12:18:37;;;;;;;3.30;2.00;;;;;;;21.08;78.97;99685.27;177263;1260;46121;-80
2023/08/31 12:22:40;;;;;;;6.60;2.20;;;;;;;21.10;78.35;99682.77;176866;1260;45985;-80
2023/08/31 12:26:43;;;;;;;3.20;1.80;;;;;;;21.14;79.57;99683.55;177575;1260;59723;-80
2023/08/31 12:30:58;;;;;;;3.30;2.20;;;;;;;21.20;79.12;99685.95;177481;1261;46023;-80
2023/08/31 12:35:03;;;;;;;3.00;1.40;;;;;;;20.97;74.23;99690.67;177441;1261;46066;-80
2023/08/31 12:39:09;;;;;;;3.50;1.60;;;;;;;20.66;74.79;99691.90;177655;1260;46203;-80
2023/08/31 12:43:12;;;;;;;2.90;2.10;;;;;;;20.66;75.34;99686.66;177650;1264;46097;-81
2023/08/31 12:47:16;;;;;;;2.50;1.60;;;;;;;20.82;76.44;99681.85;176965;1260;58242;-80
2023/08/31 12:51:19;;;;;;;4.70;2.20;;;;;;;20.93;75.03;99684.23;177334;1260;46183;-81
2023/08/31 12:55:22;;;;;;;2.10;1.40;;;;;;;21.01;75.61;99682.23;176612;1261;46442;-80
2023/08/31 12:59:26;;;;;;;19.60;3.40;;;;;;;21.14;76.13;99684.20;177122;1262;46212;-82
2023/08/31 13:03:29;;;;;;;2.50;2.30;;;;;;;21.23;73.77;99678.92;177588;1261;45974;-82
2023/08/31 13:07:32;;;;;;;4.00;2.30;;;;;;;21.35;75.35;99677.81;177267;1261;59597;-83
2023/08/31 13:11:35;;;;;;;2.00;1.80;;;;;;;21.50;74.16;99676.40;177912;1261;44806;-82
2023/08/31 13:15:38;;;;;;;4.00;2.80;;;;;;;21.69;75.74;99686.67;177919;1260;46065;-82
2023/08/31 13:19:42;;;;;;;4.40;1.50;;;;;;;21.88;72.06;99687.87;178535;1261;44387;-83
2023/08/31 13:23:45;;;;;;;2.50;1.40;;;;;;;22.08;73.38;99691.34;178245;1261;45358;-83
2023/08/31 13:27:48;;;;;;;2.20;2.00;;;;;;;22.26;71.59;99689.04;177762;1260;59564;-85
2023/08/31 13:31:51;;;;;;;3.80;2.10;;;;;;;22.42;71.08;99689.86;178252;1260;46110;-82
2023/08/31 13:35:58;;;;;;;2.80;1.40;;;;;;;22.54;68.93;99693.09;177505;1261;46084;-82
2023/08/31 13:40:04;;;;;;;2.80;1.20;;;;;;;22.54;66.90;99696.36;178483;1261;44726;-81
2023/08/31 13:44:07;;;;;;;2.10;1.60;;;;;;;22.54;67.35;99699.05;178403;1260;46094;-81
2023/08/31 13:48:10;;;;;;;4.10;1.40;;;;;;;22.53;66.39;99698.48;179620;1260;59688;-82
2023/08/31 13:52:14;;;;;;;1.20;1.10;;;;;;;22.57;66.02;99694.75;179827;1260;43888;-81
2023/08/31 13:56:17;;;;;;;3.40;1.90;;;;;;;22.57;67.03;99692.41;178760;1260;43818;-82
2023/08/31 14:00:21;;;;;;;2.00;1.30;;;;;;;22.61;66.82;99690.55;178716;1260;46014;-81
2023/08/31 14:04:24;;;;;;;4.10;1.50;;;;;;;22.68;68.70;99690.61;178076;1261;46042;-81
2023/08/31 14:08:27;;;;;;;2.30;1.70;;;;;;;22.61;65.81;99691.33;178314;1260;59447;-82
2023/08/31 14:12:30;;;;;;;2.70;1.90;;;;;;;22.48;66.41;99689.68;177828;1260;45963;-82
2023/08/31 14:16:33;;;;;;;2.60;1.20;;;;;;;22.55;67.54;99694.13;177659;1260;46044;-82
2023/08/31 14:20:36;;;;;;;2.30;1.60;;;;;;;22.34;65.67;99694.56;177632;1260;46047;-81
2023/08/31 14:24:40;;;;;;;3.50;1.00;;;;;;;21.93;67.61;99691.88;177368;1260;46089;-81
2023/08/31 14:28:45;;;;;;;2.10;1.40;;;;;;;21.99;71.69;99694.69;177593;1260;59691;-81
2023/08/31 14:32:48;;;;;;;2.40;1.40;;;;;;;22.18;67.89;99694.75;180257;1260;45940;-82
2023/08/31 14:36:52;;;;;;;2.30;1.50;;;;;;;22.18;67.03;99701.25;178147;1262;44801;-82
2023/08/31 14:40:55;;;;;;;1.10;1.10;;;;;;;21.83;64.86;99695.23;177436;1262;46057;-81
2023/08/31 14:44:58;;;;;;;2.70;1.80;;;;;;;21.47;67.19;99693.42;178812;1264;44401;-81
2023/08/31 14:49:01;;;;;;;1.60;0.80;;;;;;;21.33;68.68;99695.95;177741;1262;58246;-81
2023/08/31 14:53:04;;;;;;;1.50;1.00;;;;;;;21.16;69.70;99699.69;177265;1260;46019;-81
2023/08/31 14:57:07;;;;;;;1.90;1.30;;;;;;;21.06;70.03;99703.36;177627;1260;46224;-81
2023/08/31 15:01:11;;;;;;;5.30;1.10;;;;;;;20.93;70.48;99704.87;177599;1260;45648;-81
2023/08/31 15:05:14;;;;;;;1.70;0.70;;;;;;;20.81;72.85;99719.32;176840;1260;46129;-81
2023/08/31 15:09:18;;;;;;;2.30;1.10;;;;;;;20.26;75.45;99748.89;177732;1260;59589;-81
2023/08/31 15:13:21;;;;;;;5.90;1.20;;;;;;;19.00;82.94;99758.83;177902;1260;46127;-81
2023/08/31 15:17:24;;;;;;;5.30;1.50;;;;;;;18.13;87.80;99774.15;177564;1260;46126;-81
2023/08/31 15:21:27;;;;;;;1.90;0.60;;;;;;;17.55;89.62;99778.37;177359;1261;45081;-81
2023/08/31 15:25:30;;;;;;;1.90;0.80;;;;;;;17.41;91.62;99776.25;178051;1260;46148;-81
2023/08/31 15:29:33;;;;;;;1.50;0.90;;;;;;;17.31;94.56;99784.21;178032;1261;58703;-81
2023/08/31 15:33:37;;;;;;;0.70;0.50;;;;;;;17.30;98.60;99791.75;177881;1261;46149;-81
2023/08/31 15:37:40;;;;;;;1.60;0.90;;;;;;;17.32;96.29;99802.55;177307;1261;46113;-81
2023/08/31 15:41:43;;;;;;;0.70;0.50;;;;;;;17.36;96.55;99806.92;179254;1261;46007;-81
2023/08/31 15:45:47;;;;;;;2.90;1.20;;;;;;;17.41;97.64;99806.23;178287;1261;46001;-81
2023/08/31 15:49:51;;;;;;;1.50;0.90;;;;;;;17.76;96.81;99802.38;178913;1260;57917;-81
2023/08/31 15:53:54;;;;;;;1.50;0.80;;;;;;;18.25;95.43;99800.48;178055;1260;46082;-81
2023/08/31 15:57:57;;;;;;;3.20;1.90;;;;;;;18.67;91.49;99806.52;177378;1260;46021;-81
2023/08/31 16:02:00;;;;;;;1.20;0.90;;;;;;;18.94;88.63;99805.92;177483;1261;45994;-80
2023/08/31 16:06:12;;;;;;;1.90;1.10;;;;;;;19.11;86.08;99806.81;177468;1261;46050;-81
2023/08/31 16:10:16;;;;;;;2.50;1.90;;;;;;;19.25;84.43;99806.93;177930;1260;59580;-81
2023/08/31 16:14:19;;;;;;;5.00;1.40;;;;;;;19.28;83.25;99808.70;177720;1260;46082;-81
2023/08/31 16:18:22;;;;;;;4.20;1.60;;;;;;;19.31;84.39;99811.05;178392;1262;46056;-81
2023/08/31 16:22:25;;;;;;;2.80;1.50;;;;;;;19.34;86.17;99814.23;177431;1260;45985;-81
2023/08/31 16:26:28;;;;;;;4.00;1.10;;;;;;;19.30;85.81;99812.11;178909;1261;44557;-81
2023/08/31 16:30:32;;;;;;;3.20;1.70;;;;;;;19.23;86.75;99812.17;179811;1261;60158;-80
2023/08/31 16:34:35;;;;;;;12.60;1.50;;;;;;;19.14;86.76;99815.27;178213;1261;46084;-82
2023/08/31 16:38:38;;;;;;;2.00;1.30;;;;;;;19.07;85.21;99801.88;177715;1262;46162;-82
2023/08/31 16:42:42;;;;;;;1.30;1.20;;;;;;;18.98;85.17;99805.05;177293;1262;46093;-82
2023/08/31 16:46:45;;;;;;;3.90;1.60;;;;;;;18.91;85.33;99807.92;177710;1260;45985;-82
2023/08/31 16:50:48;;;;;;;1.30;1.00;;;;;;;18.88;85.70;99811.37;179004;1261;59937;-82
2023/08/31 16:54:51;;;;;;;1.10;1.00;;;;;;;18.84;85.05;99814.48;178399;1262;46074;-82
2023/08/31 16:58:56;;;;;;;1.70;1.00;;;;;;;18.84;85.53;99814.64;178268;1261;46118;-83
2023/08/31 17:03:04;;;;;;;5.00;1.40;;;;;;;18.85;86.40;99821.94;177268;1260;46149;-82
2023/08/31 17:07:07;;;;;;;4.10;1.60;;;;;;;18.86;86.87;99827.39;177724;1262;45991;-83
2023/08/31 17:11:11;;;;;;;3.50;1.00;;;;;;;18.78;87.33;99822.99;177562;1261;59450;-83
2023/08/31 17:15:15;;;;;;;3.90;1.60;;;;;;;18.77;88.51;99829.15;178781;1260;45919;-83
2023/08/31 17:19:18;;;;;;;1.60;1.40;;;;;;;18.73;89.72;99825.15;177877;1262;45984;-83
2023/08/31 17:23:21;;;;;;;1.60;1.20;;;;;;;18.70;91.90;99829.48;179323;1261;44200;-83
2023/08/31 17:27:25;;;;;;;2.20;0.60;;;;;;;18.63;93.17;99832.25;178732;1261;46180;-83
2023/08/31 17:31:28;;;;;;;2.90;1.50;;;;;;;18.62;92.94;99842.38;178082;1262;59577;-83
2023/08/31 17:35:31;;;;;;;3.60;2.20;;;;;;;18.62;92.32;99844.50;178477;1262;45989;-81
2023/08/31 17:39:35;;;;;;;4.50;2.40;;;;;;;18.59;91.47;99847.95;178486;1254;45229;-82
2023/08/31 17:43:38;;;;;;;3.30;2.10;;;;;;;18.53;90.99;99846.52;179126;1264;46005;-84
2023/08/31 17:47:42;;;;;;;3.80;1.40;;;;;;;18.43;90.99;99843.37;177904;1265;44683;-84
2023/08/31 17:51:45;;;;;;;2.80;2.00;;;;;;;18.33;90.80;99841.15;178616;1263;58240;-84
2023/08/31 17:55:49;;;;;;;1.90;1.20;;;;;;;18.20;89.44;99847.06;178707;1263;46110;-82
2023/08/31 17:59:52;;;;;;;1.30;0.80;;;;;;;18.07;87.99;99852.77;178430;1263;46084;-84
2023/08/31 18:03:56;;;;;;;2.40;1.30;;;;;;;17.94;89.04;99868.74;177833;1264;45979;-84
2023/08/31 18:07:59;;;;;;;2.50;1.00;;;;;;;17.79;86.96;99864.30;178172;1264;44262;-84
2023/08/31 18:12:07;;;;;;;3.10;1.00;;;;;;;17.63;87.11;99865.79;178294;1264;57982;-84
2023/08/31 18:16:11;;;;;;;2.10;1.30;;;;;;;17.57;87.40;99864.70;177854;1262;46571;-84
2023/08/31 18:20:15;;;;;;;3.10;1.00;;;;;;;17.52;87.69;99864.24;178417;1262;45997;-84
2023/08/31 18:24:20;;;;;;;1.90;0.70;;;;;;;17.46;86.27;99860.96;178876;1262;44291;-87
2023/08/31 18:28:24;;;;;;;1.70;1.40;;;;;;;17.43;86.61;99856.98;178487;1261;46058;-84
2023/08/31 18:32:27;;;;;;;2.40;1.10;;;;;;;17.38;87.44;99859.59;178463;1264;60205;-85
2023/08/31 18:36:30;;;;;;;2.00;1.00;;;;;;;17.36;87.08;99864.65;178639;1262;44686;-85
2023/08/31 18:40:35;;;;;;;1.70;1.10;;;;;;;17.31;87.35;99866.91;178658;1264;46096;-86
2023/08/31 18:44:39;;;;;;;1.30;1.10;;;;;;;17.24;87.67;99874.48;178205;1264;46133;-83
2023/08/31 18:48:42;;;;;;;1.40;0.90;;;;;;;17.17;87.92;99875.41;178091;1262;46135;-86
2023/08/31 18:52:46;;;;;;;1.80;0.70;;;;;;;17.07;88.29;99880.34;178205;1268;59229;-84